ADDS METAR Data INFO
IDs: Format: Raw Decoded Include TAF

Data at: 2003 UTC 19 Oct 2017

KOWP 191955Z AUTO 16006KT 10SM CLR 27/12 A3011 RMK AO2 T02730122
KOWP 191935Z AUTO 15006KT 10SM CLR 26/12 A3011 RMK AO2 T02630119
KOWP 191915Z AUTO 16008KT 140V200 10SM CLR 26/11 A3012 RMK AO2 T02610111
KOWP 191855Z AUTO 18004KT 10SM CLR 26/12 A3013 RMK AO2 T02580120
KOWP 191835Z AUTO 16006KT 10SM CLR 26/12 A3014 RMK AO2 T02550117
KOWP 191815Z AUTO 18005KT 10SM CLR 26/12 A3014 RMK AO2 T02550117
KOWP 191755Z AUTO 19008KT 10SM CLR 25/11 A3015 RMK AO2 T02500109 10251 20126
KOWP 191735Z AUTO 16005KT 10SM CLR 25/12 A3016 RMK AO2 T02450119
KOWP 191715Z AUTO 19008KT 10SM CLR 24/11 A3016 RMK AO2 T02410114
KOWP 191655Z AUTO 20007KT 10SM CLR 24/11 A3016 RMK AO2 T02350111
KOWP 191635Z AUTO 19010KT 10SM CLR 24/11 A3016 RMK AO2 T02370114
KOWP 191615Z AUTO 19010G14KT 10SM CLR 23/11 A3017 RMK AO2 T02310113
KOWP 191555Z AUTO 18010G14KT 10SM CLR 22/12 A3017 RMK AO2 T02160115
KOWP 191535Z AUTO 18008G14KT 10SM CLR 21/11 A3017 RMK AO2 T02080109
KOWP 191515Z AUTO 18008KT 10SM CLR 20/11 A3017 RMK AO2 T02040109
KOWP 191455Z AUTO 19007KT 10SM CLR 19/11 A3017 RMK AO2 T01930108
KOWP 191435Z AUTO 18007KT 10SM CLR 18/11 A3017 RMK AO2 T01780105
KOWP 191415Z AUTO 16005KT 10SM CLR 17/10 A3016 RMK AO2 T01670101
KOWP 191355Z AUTO 15005KT 10SM CLR 16/10 A3016 RMK AO2 T01560096
KOWP 191335Z AUTO 15003KT 10SM CLR 15/09 A3015 RMK AO2 T01450092
KOWP 191315Z AUTO 14005KT 10SM CLR 13/09 A3014 RMK AO2 T01320092
KOWP 191255Z AUTO 15004KT 10SM CLR 13/09 A3014 RMK AO2 T01260087
KOWP 191235Z AUTO 14005KT 10SM CLR 13/09 A3014 RMK AO2 T01270086
KOWP 191215Z AUTO 14004KT 10SM CLR 13/09 A3013 RMK AO2 T01300085
KOWP 191155Z AUTO 14004KT 10SM CLR 14/09 A3013 RMK AO2 T01380085 10181 20138
KOWP 191135Z AUTO 15004KT 10SM CLR 15/08 A3013 RMK AO2 T01460084
KOWP 191115Z AUTO 16004KT 10SM CLR 15/08 A3013 RMK AO2 T01510082
KOWP 191055Z AUTO 17006KT 10SM CLR 16/08 A3012 RMK AO2 T01550082
KOWP 191035Z AUTO 17006KT 10SM CLR 16/08 A3012 RMK AO2 T01560082
KOWP 191015Z AUTO 16006KT 10SM CLR 16/08 A3012 RMK AO2 T01560082
KOWP 190955Z AUTO 17005KT 10SM CLR 16/08 A3011 RMK AO2 T01620081
KOWP 190935Z AUTO 18006KT 10SM CLR 16/08 A3011 RMK AO2 T01630081
KOWP 190915Z AUTO 18006KT 10SM CLR 16/08 A3010 RMK AO2 T01630081
KOWP 190855Z AUTO 17006KT 10SM CLR 17/08 A3011 RMK AO2 T01650080
KOWP 190835Z AUTO 17005KT 10SM CLR 16/08 A3011 RMK AO2 T01620080
KOWP 190815Z AUTO 17005KT 10SM CLR 17/08 A3011 RMK AO2 T01670080
KOWP 190755Z AUTO 18005KT 10SM CLR 17/08 A3010 RMK AO2 T01680080
KOWP 190735Z AUTO 18005KT 10SM CLR 17/08 A3010 RMK AO2 T01700080
KOWP 190715Z AUTO 17003KT 10SM CLR 17/08 A3010 RMK AO2 T01670080
KOWP 190655Z AUTO 17003KT 10SM CLR 17/08 A3010 RMK AO2 T01720078
KOWP 190635Z AUTO 18004KT 10SM CLR 18/08 A3009 RMK AO2 T01750080
KOWP 190615Z AUTO 18006KT 10SM CLR 18/08 A3009 RMK AO2 T01770079
KOWP 190555Z AUTO 17005KT 10SM CLR 18/08 A3009 RMK AO2 T01800080 10222 20177 402750107
KOWP 190535Z AUTO 18005KT 10SM CLR 18/08 A3009 RMK AO2 T01820080
KOWP 190515Z AUTO 18005KT 10SM CLR 18/08 A3009 RMK AO2 T01840082
KOWP 190455Z AUTO 17006KT 10SM CLR 18/09 A3009 RMK AO2 T01810086
KOWP 190435Z AUTO 17007KT 10SM CLR 18/09 A3009 RMK AO2 T01820087
KOWP 190415Z AUTO 16005KT 10SM CLR 18/09 A3009 RMK AO2 T01800090
KOWP 190355Z AUTO 17005KT 10SM CLR 19/09 A3009 RMK AO2 T01870087
KOWP 190335Z AUTO 18006KT 10SM CLR 19/09 A3009 RMK AO2 T01900086
KOWP 190315Z AUTO 19005KT 10SM CLR 19/09 A3009 RMK AO2 T01910086
KOWP 190255Z AUTO 17004KT 10SM CLR 19/09 A3009 RMK AO2 T01900087
KOWP 190235Z AUTO 17004KT 10SM CLR 19/09 A3008 RMK AO2 T01910089
KOWP 190215Z AUTO 17006KT 10SM CLR 19/09 A3007 RMK AO2 T01880091
KOWP 190155Z AUTO 16004KT 10SM CLR 19/09 A3008 RMK AO2 T01940093
KOWP 190135Z AUTO 16005KT 10SM CLR 20/09 A3008 RMK AO2 T01950092
KOWP 190115Z AUTO 16004KT 10SM CLR 20/09 A3008 RMK AO2 T02000093
KOWP 190055Z AUTO 16004KT 10SM CLR 20/09 A3007 RMK AO2 T02020093
KOWP 190035Z AUTO 16004KT 10SM CLR 22/09 A3007 RMK AO2 T02150089
KOWP 190015Z AUTO 17006KT 10SM CLR 22/09 A3006 RMK AO2 T02190089
KOWP 182355Z AUTO 17005KT 10SM CLR 22/09 A3005 RMK AO2 T02240091 10275 20224
KOWP 182335Z AUTO 17006KT 10SM CLR 23/09 A3004 RMK AO2 T02310092
KOWP 182315Z AUTO 17005KT 10SM CLR 24/10 A3004 RMK AO2 T02370095
KOWP 182255Z AUTO 17006KT 10SM CLR 25/09 A3004 RMK AO2 T02510091
KOWP 182235Z AUTO 17007KT 10SM CLR 26/08 A3004 RMK AO2 T02580080
KOWP 182215Z AUTO 17007KT 10SM CLR 26/08 A3005 RMK AO2 T02570080
KOWP 182155Z AUTO 17006KT 10SM CLR 26/08 A3005 RMK AO2 T02570082
KOWP 182135Z AUTO 17009KT 10SM CLR 27/08 A3005 RMK AO2 T02650084
KOWP 182115Z AUTO 18010G14KT 10SM CLR 27/08 A3005 RMK AO2 T02740081
KOWP 182055Z AUTO 16010KT 10SM CLR 27/08 A3004 RMK AO2 T02730079
KOWP 182035Z AUTO 19012G16KT 10SM CLR 27/08 A3004 RMK AO2 T02700075
KOWP 182015Z AUTO 18009G16KT 10SM CLR 27/08 A3004 RMK AO2 T02690080
KOWP 181955Z AUTO 16011G15KT 10SM CLR 27/08 A3004 RMK AO2 T02660081
KOWP 181935Z AUTO 17009G16KT 10SM CLR 27/08 A3005 RMK AO2 T02650080
KOWP 181915Z AUTO 18011G17KT 10SM CLR 26/08 A3006 RMK AO2 T02590075
KOWP 181855Z AUTO 18010G16KT 10SM CLR 26/07 A3007 RMK AO2 T02590074
KOWP 181835Z AUTO 18013G16KT 10SM CLR 26/07 A3007 RMK AO2 T02550072
KOWP 181815Z AUTO 17013G20KT 10SM CLR 25/07 A3008 RMK AO2 T02500068
KOWP 181755Z AUTO 19012G19KT 10SM CLR 24/07 A3009 RMK AO2 T02440068 10246 20107
KOWP 181735Z AUTO 19014G21KT 10SM CLR 24/07 A3011 RMK AO2 T02400068
KOWP 181715Z AUTO 18010G19KT 10SM CLR 23/07 A3011 RMK AO2 T02320074
KOWP 181655Z AUTO 18010G21KT 10SM CLR 22/07 A3012 RMK AO2 T02240074
KOWP 181635Z AUTO 18009G16KT 150V220 10SM CLR 22/08 A3012 RMK AO2 T02170080
KOWP 181615Z AUTO 17008KT 10SM CLR 21/08 A3013 RMK AO2 T02080081
KOWP 181555Z AUTO 18006KT 10SM CLR 20/08 A3013 RMK AO2 T01950079
KOWP 181535Z AUTO 18009KT 10SM CLR 19/08 A3013 RMK AO2 T01890076
KOWP 181515Z AUTO 17010G14KT 10SM CLR 18/07 A3013 RMK AO2 T01790073
KOWP 181455Z AUTO 17010G15KT 10SM CLR 17/07 A3013 RMK AO2 T01700074
KOWP 181435Z AUTO 17006KT 10SM CLR 16/07 A3012 RMK AO2 T01590074
KOWP 181415Z AUTO 16006KT 10SM CLR 15/07 A3012 RMK AO2 T01500073
KOWP 181355Z AUTO 16006KT 10SM CLR 14/07 A3012 RMK AO2 T01390070
KOWP 181335Z AUTO 16005KT 10SM CLR 13/07 A3011 RMK AO2 T01280069
KOWP 181315Z AUTO 16005KT 10SM CLR 12/07 A3011 RMK AO2 T01180066
KOWP 181255Z AUTO 16003KT 10SM CLR 11/07 A3011 RMK AO2 T01100065
KOWP 181235Z AUTO 15004KT 10SM CLR 11/07 A3011 RMK AO2 T01100065
KOWP 181215Z AUTO 15004KT 10SM CLR 11/07 A3011 RMK AO2 T01100065
KOWP 181155Z AUTO 16004KT 10SM CLR 11/07 A3011 RMK AO2 T01100065 10151 20110
KOWP 181135Z AUTO 16004KT 10SM CLR 11/07 A3011 RMK AO2 T01120065
KOWP 181115Z AUTO 16004KT 10SM CLR 12/07 A3011 RMK AO2 T01160065
KOWP 181055Z AUTO 15004KT 10SM CLR 12/06 A3011 RMK AO2 T01180063
KOWP 181035Z AUTO 15004KT 10SM CLR 12/06 A3010 RMK AO2 T01170064
KOWP 181015Z AUTO 14004KT 10SM CLR 12/07 A3010 RMK AO2 T01160066
KOWP 180955Z AUTO 15005KT 10SM CLR 12/07 A3010 RMK AO2 T01180065
KOWP 180935Z AUTO 14005KT 10SM CLR 12/07 A3010 RMK AO2 T01170065
KOWP 180915Z AUTO 13005KT 10SM CLR 12/07 A3010 RMK AO2 T01150066
KOWP 180855Z AUTO 14005KT 10SM CLR 12/07 A3010 RMK AO2 T01170066
KOWP 180835Z AUTO 14004KT 10SM CLR 12/07 A3011 RMK AO2 T01210065
KOWP 180815Z AUTO 14003KT 10SM CLR 13/07 A3011 RMK AO2 T01290065